sensor_id;sensor_type;location;lat;lon;timestamp;pressure;altitude;pressure_sealevel;temperature;humidity
66681;BME280;53575;51.366;12.350;2022-10-13T00:02:06;100870.97;;;8.79;100.00
66681;BME280;53575;51.366;12.350;2022-10-13T00:04:32;100869.78;;;8.49;100.00
66681;BME280;53575;51.366;12.350;2022-10-13T00:06:57;100879.47;;;8.61;100.00
66681;BME280;53575;51.366;12.350;2022-10-13T00:09:22;100878.72;;;8.73;100.00
66681;BME280;53575;51.366;12.350;2022-10-13T00:11:48;100872.00;;;8.93;100.00
66681;BME280;53575;51.366;12.350;2022-10-13T00:14:13;100864.03;;;8.81;100.00
66681;BME280;53575;51.366;12.350;2022-10-13T00:16:38;100864.22;;;8.99;100.00
66681;BME280;53575;51.366;12.350;2022-10-13T00:19:04;100859.09;;;9.12;100.00
66681;BME280;53575;51.366;12.350;2022-10-13T00:21:29;100866.81;;;8.99;100.00
66681;BME280;53575;51.366;12.350;2022-10-13T00:23:55;100847.44;;;8.73;100.00
66681;BME280;53575;51.366;12.350;2022-10-13T00:26:22;100855.94;;;8.53;100.00
66681;BME280;53575;51.366;12.350;2022-10-13T00:28:48;100856.06;;;8.64;100.00
66681;BME280;53575;51.366;12.350;2022-10-13T00:31:22;100865.41;;;8.47;100.00
66681;BME280;53575;51.366;12.350;2022-10-13T00:33:48;100861.09;;;8.49;100.00
66681;BME280;53575;51.366;12.350;2022-10-13T00:36:14;100854.59;;;8.89;100.00
66681;BME280;53575;51.366;12.350;2022-10-13T00:38:40;100856.97;;;8.66;100.00
66681;BME280;53575;51.366;12.350;2022-10-13T00:41:06;100856.16;;;8.75;100.00
66681;BME280;53575;51.366;12.350;2022-10-13T00:43:51;100868.88;;;8.46;100.00
66681;BME280;53575;51.366;12.350;2022-10-13T00:46:18;100863.69;;;8.49;100.00
66681;BME280;53575;51.366;12.350;2022-10-13T00:48:44;100863.88;;;8.64;100.00
66681;BME280;53575;51.366;12.350;2022-10-13T00:51:15;100868.09;;;8.51;100.00
66681;BME280;53575;51.366;12.350;2022-10-13T00:53:42;100868.00;;;8.45;100.00
66681;BME280;53575;51.366;12.350;2022-10-13T00:56:09;100863.31;;;8.94;100.00
66681;BME280;53575;51.366;12.350;2022-10-13T00:58:36;100852.16;;;9.09;100.00
66681;BME280;53575;51.366;12.350;2022-10-13T01:01:04;100854.41;;;8.71;100.00
66681;BME280;53575;51.366;12.350;2022-10-13T01:03:30;100864.81;;;8.72;100.00
66681;BME280;53575;51.366;12.350;2022-10-13T01:05:58;100856.31;;;8.90;100.00
66681;BME280;53575;51.366;12.350;2022-10-13T01:08:26;100857.97;;;8.85;100.00
66681;BME280;53575;51.366;12.350;2022-10-13T01:16:28;100858.09;;;8.94;100.00
66681;BME280;53575;51.366;12.350;2022-10-13T01:27:47;100854.94;;;9.32;100.00
66681;BME280;53575;51.366;12.350;2022-10-13T01:30:20;100856.72;;;9.42;100.00
66681;BME280;53575;51.366;12.350;2022-10-13T01:38:06;100865.19;;;9.11;100.00
66681;BME280;53575;51.366;12.350;2022-10-13T01:40:40;100865.13;;;9.01;100.00
66681;BME280;53575;51.366;12.350;2022-10-13T01:43:10;100859.13;;;9.15;100.00
66681;BME280;53575;51.366;12.350;2022-10-13T01:45:46;100854.72;;;9.05;100.00
66681;BME280;53575;51.366;12.350;2022-10-13T01:48:14;100845.06;;;8.96;100.00
66681;BME280;53575;51.366;12.350;2022-10-13T01:50:41;100842.34;;;8.84;100.00
66681;BME280;53575;51.366;12.350;2022-10-13T01:53:07;100844.03;;;8.78;100.00
66681;BME280;53575;51.366;12.350;2022-10-13T01:55:32;100830.38;;;9.06;100.00
66681;BME280;53575;51.366;12.350;2022-10-13T01:57:58;100825.88;;;8.86;100.00
66681;BME280;53575;51.366;12.350;2022-10-13T02:00:23;100821.34;;;8.70;100.00
66681;BME280;53575;51.366;12.350;2022-10-13T02:03:09;100821.28;;;8.59;100.00
66681;BME280;53575;51.366;12.350;2022-10-13T02:08:51;100800.66;;;8.85;100.00
66681;BME280;53575;51.366;12.350;2022-10-13T02:11:21;100807.56;;;8.78;100.00
66681;BME280;53575;51.366;12.350;2022-10-13T02:13:52;100803.22;;;8.79;100.00
66681;BME280;53575;51.366;12.350;2022-10-13T02:16:21;100806.69;;;8.81;100.00
66681;BME280;53575;51.366;12.350;2022-10-13T02:18:48;100800.72;;;8.91;100.00
66681;BME280;53575;51.366;12.350;2022-10-13T02:21:15;100795.53;;;8.94;100.00
66681;BME280;53575;51.366;12.350;2022-10-13T02:23:42;100793.81;;;8.98;100.00
66681;BME280;53575;51.366;12.350;2022-10-13T02:26:08;100792.06;;;8.94;100.00
66681;BME280;53575;51.366;12.350;2022-10-13T02:28:36;100800.78;;;8.97;100.00
66681;BME280;53575;51.366;12.350;2022-10-13T02:31:02;100800.00;;;9.09;100.00
66681;BME280;53575;51.366;12.350;2022-10-13T02:33:28;100805.16;;;9.03;100.00
66681;BME280;53575;51.366;12.350;2022-10-13T02:35:53;100798.19;;;9.00;100.00
66681;BME280;53575;51.366;12.350;2022-10-13T02:38:18;100795.66;;;9.10;100.00
66681;BME280;53575;51.366;12.350;2022-10-13T02:40:44;100795.81;;;9.31;100.00
66681;BME280;53575;51.366;12.350;2022-10-13T02:43:10;100793.25;;;9.39;100.00
66681;BME280;53575;51.366;12.350;2022-10-13T02:45:35;100794.06;;;9.30;100.00
66681;BME280;53575;51.366;12.350;2022-10-13T02:48:00;100794.88;;;9.23;100.00
66681;BME280;53575;51.366;12.350;2022-10-13T02:50:26;100797.56;;;9.34;100.00
66681;BME280;53575;51.366;12.350;2022-10-13T02:52:51;100783.56;;;9.21;100.00
66681;BME280;53575;51.366;12.350;2022-10-13T02:55:16;100778.34;;;9.22;100.00
66681;BME280;53575;51.366;12.350;2022-10-13T02:57:42;100793.13;;;9.20;100.00
66681;BME280;53575;51.366;12.350;2022-10-13T03:00:13;100792.22;;;9.18;100.00
66681;BME280;53575;51.366;12.350;2022-10-13T03:02:39;100791.41;;;9.24;100.00
66681;BME280;53575;51.366;12.350;2022-10-13T03:05:04;100790.69;;;9.43;100.00
66681;BME280;53575;51.366;12.350;2022-10-13T03:07:30;100787.03;;;9.23;100.00
66681;BME280;53575;51.366;12.350;2022-10-13T03:09:55;100793.97;;;9.16;100.00
66681;BME280;53575;51.366;12.350;2022-10-13T03:12:21;100786.16;;;9.16;100.00
66681;BME280;53575;51.366;12.350;2022-10-13T03:14:46;100792.13;;;9.03;100.00
66681;BME280;53575;51.366;12.350;2022-10-13T03:17:12;100788.69;;;9.10;100.00
66681;BME280;53575;51.366;12.350;2022-10-13T03:19:37;100781.75;;;9.11;100.00
66681;BME280;53575;51.366;12.350;2022-10-13T03:22:02;100785.34;;;9.23;100.00
66681;BME280;53575;51.366;12.350;2022-10-13T03:24:28;100780.03;;;9.14;100.00
66681;BME280;53575;51.366;12.350;2022-10-13T03:26:53;100776.41;;;8.95;100.00
66681;BME280;53575;51.366;12.350;2022-10-13T03:29:19;100771.97;;;8.82;100.00
66681;BME280;53575;51.366;12.350;2022-10-13T03:31:44;100766.81;;;8.87;100.00
66681;BME280;53575;51.366;12.350;2022-10-13T03:34:11;100774.66;;;8.93;100.00
66681;BME280;53575;51.366;12.350;2022-10-13T03:36:36;100771.09;;;8.78;100.00
66681;BME280;53575;51.366;12.350;2022-10-13T03:39:02;100762.25;;;8.63;100.00
66681;BME280;53575;51.366;12.350;2022-10-13T03:41:27;100762.25;;;8.66;100.00
66681;BME280;53575;51.366;12.350;2022-10-13T03:43:53;100762.25;;;8.64;100.00
66681;BME280;53575;51.366;12.350;2022-10-13T03:46:19;100771.84;;;8.68;100.00
66681;BME280;53575;51.366;12.350;2022-10-13T03:48:45;100783.22;;;8.75;100.00
66681;BME280;53575;51.366;12.350;2022-10-13T03:51:13;100775.50;;;8.89;100.00
66681;BME280;53575;51.366;12.350;2022-10-13T03:53:39;100778.09;;;8.89;100.00
66681;BME280;53575;51.366;12.350;2022-10-13T03:56:05;100773.81;;;8.94;100.00
66681;BME280;53575;51.366;12.350;2022-10-13T03:58:31;100765.97;;;8.91;100.00
66681;BME280;53575;51.366;12.350;2022-10-13T04:01:01;100774.69;;;8.96;100.00
66681;BME280;53575;51.366;12.350;2022-10-13T04:03:27;100759.91;;;8.95;100.00
66681;BME280;53575;51.366;12.350;2022-10-13T04:05:52;100760.69;;;8.85;100.00
66681;BME280;53575;51.366;12.350;2022-10-13T04:08:18;100753.69;;;8.74;100.00
66681;BME280;53575;51.366;12.350;2022-10-13T04:10:43;100756.31;;;8.81;100.00
66681;BME280;53575;51.366;12.350;2022-10-13T04:13:08;100751.13;;;8.84;100.00
66681;BME280;53575;51.366;12.350;2022-10-13T04:15:40;100749.47;;;8.90;100.00
66681;BME280;53575;51.366;12.350;2022-10-13T04:18:06;100746.75;;;8.79;100.00
66681;BME280;53575;51.366;12.350;2022-10-13T04:20:37;100743.28;;;8.79;100.00
66681;BME280;53575;51.366;12.350;2022-10-13T04:23:03;100741.59;;;8.87;100.00
66681;BME280;53575;51.366;12.350;2022-10-13T04:25:28;100744.28;;;8.93;100.00
66681;BME280;53575;51.366;12.350;2022-10-13T04:27:54;100739.13;;;9.04;100.00
66681;BME280;53575;51.366;12.350;2022-10-13T04:30:19;100729.63;;;9.12;100.00
66681;BME280;53575;51.366;12.350;2022-10-13T04:32:44;100742.72;;;9.20;100.00
66681;BME280;53575;51.366;12.350;2022-10-13T04:35:10;100756.69;;;9.33;100.00
66681;BME280;53575;51.366;12.350;2022-10-13T04:37:35;100748.03;;;9.40;100.00
66681;BME280;53575;51.366;12.350;2022-10-13T04:40:00;100734.13;;;9.39;100.00
66681;BME280;53575;51.366;12.350;2022-10-13T04:42:26;100736.78;;;9.48;100.00
66681;BME280;53575;51.366;12.350;2022-10-13T04:44:51;100735.03;;;9.49;100.00
66681;BME280;53575;51.366;12.350;2022-10-13T04:47:16;100740.31;;;9.58;100.00
66681;BME280;53575;51.366;12.350;2022-10-13T04:49:42;100740.31;;;9.61;100.00
66681;BME280;53575;51.366;12.350;2022-10-13T04:52:07;100747.34;;;9.70;100.00
66681;BME280;53575;51.366;12.350;2022-10-13T04:54:32;100736.81;;;9.58;100.00
66681;BME280;53575;51.366;12.350;2022-10-13T04:56:58;100735.97;;;9.54;100.00
66681;BME280;53575;51.366;12.350;2022-10-13T04:59:23;100732.53;;;9.70;100.00
66681;BME280;53575;51.366;12.350;2022-10-13T05:01:49;100731.66;;;9.62;100.00
66681;BME280;53575;51.366;12.350;2022-10-13T05:04:14;100732.50;;;9.58;100.00
66681;BME280;53575;51.366;12.350;2022-10-13T05:06:41;100724.53;;;9.38;100.00
66681;BME280;53575;51.366;12.350;2022-10-13T05:09:06;100727.22;;;9.49;100.00
66681;BME280;53575;51.366;12.350;2022-10-13T05:11:32;100733.31;;;9.51;100.00
66681;BME280;53575;51.366;12.350;2022-10-13T05:13:57;100731.59;;;9.51;100.00
66681;BME280;53575;51.366;12.350;2022-10-13T05:16:23;100735.06;;;9.52;100.00
66681;BME280;53575;51.366;12.350;2022-10-13T05:18:50;100738.56;;;9.54;100.00
66681;BME280;53575;51.366;12.350;2022-10-13T05:21:19;100738.56;;;9.57;100.00
66681;BME280;53575;51.366;12.350;2022-10-13T05:23:46;100748.97;;;9.51;100.00
66681;BME280;53575;51.366;12.350;2022-10-13T05:26:14;100748.19;;;9.72;100.00
66681;BME280;53575;51.366;12.350;2022-10-13T05:28:40;100747.38;;;9.77;100.00
66681;BME280;53575;51.366;12.350;2022-10-13T05:31:13;100749.13;;;9.88;100.00
66681;BME280;53575;51.366;12.350;2022-10-13T05:33:40;100748.34;;;10.04;100.00
66681;BME280;53575;51.366;12.350;2022-10-13T05:36:11;100747.44;;;10.00;100.00
66681;BME280;53575;51.366;12.350;2022-10-13T05:38:37;100750.97;;;10.12;100.00
66681;BME280;53575;51.366;12.350;2022-10-13T05:41:09;100755.28;;;10.02;100.00
66681;BME280;53575;51.366;12.350;2022-10-13T05:43:36;100751.81;;;10.14;100.00
66681;BME280;53575;51.366;12.350;2022-10-13T05:46:02;100762.28;;;10.12;100.00
66681;BME280;53575;51.366;12.350;2022-10-13T05:48:29;100754.44;;;10.09;100.00
66681;BME280;53575;51.366;12.350;2022-10-13T05:50:56;100757.97;;;10.25;100.00
66681;BME280;53575;51.366;12.350;2022-10-13T05:53:24;100762.34;;;10.32;100.00
66681;BME280;53575;51.366;12.350;2022-10-13T05:55:52;100763.22;;;10.36;100.00
66681;BME280;53575;51.366;12.350;2022-10-13T05:58:19;100762.38;;;10.35;100.00
66681;BME280;53575;51.366;12.350;2022-10-13T06:00:45;100767.59;;;10.31;100.00
66681;BME280;53575;51.366;12.350;2022-10-13T06:03:16;100764.97;;;10.40;100.00
66681;BME280;53575;51.366;12.350;2022-10-13T06:05:43;100758.91;;;10.56;100.00
66681;BME280;53575;51.366;12.350;2022-10-13T06:08:12;100761.53;;;10.55;100.00
66681;BME280;53575;51.366;12.350;2022-10-13T06:10:38;100747.56;;;10.60;100.00
66681;BME280;53575;51.366;12.350;2022-10-13T06:13:04;100755.44;;;10.62;100.00
66681;BME280;53575;51.366;12.350;2022-10-13T06:15:29;100756.28;;;10.67;100.00
66681;BME280;53575;51.366;12.350;2022-10-13T06:17:54;100757.16;;;10.80;100.00
66681;BME280;53575;51.366;12.350;2022-10-13T06:20:20;100757.16;;;10.78;100.00
66681;BME280;53575;51.366;12.350;2022-10-13T06:22:45;100750.19;;;10.79;100.00
66681;BME280;53575;51.366;12.350;2022-10-13T06:25:12;100755.41;;;10.94;100.00
66681;BME280;53575;51.366;12.350;2022-10-13T06:27:37;100755.44;;;11.00;100.00
66681;BME280;53575;51.366;12.350;2022-10-13T06:30:03;100760.63;;;11.12;99.53
66681;BME280;53575;51.366;12.350;2022-10-13T06:32:29;100755.41;;;11.18;99.18
66681;BME280;53575;51.366;12.350;2022-10-13T06:34:54;100747.56;;;11.08;99.33
66681;BME280;53575;51.366;12.350;2022-10-13T06:37:20;100751.03;;;11.23;98.50
66681;BME280;53575;51.366;12.350;2022-10-13T06:39:45;100751.03;;;11.16;98.61
66681;BME280;53575;51.366;12.350;2022-10-13T06:42:10;100749.31;;;10.95;99.27
66681;BME280;53575;51.366;12.350;2022-10-13T06:44:36;100747.56;;;11.12;99.77
66681;BME280;53575;51.366;12.350;2022-10-13T06:47:03;100747.53;;;11.14;99.96
66681;BME280;53575;51.366;12.350;2022-10-13T06:49:28;100744.03;;;11.29;99.34
66681;BME280;53575;51.366;12.350;2022-10-13T06:51:54;100740.50;;;11.48;98.19
66681;BME280;53575;51.366;12.350;2022-10-13T06:54:19;100743.19;;;11.30;98.89
66681;BME280;53575;51.366;12.350;2022-10-13T06:56:45;100737.03;;;11.43;99.14
66681;BME280;53575;51.366;12.350;2022-10-13T06:59:10;100732.72;;;11.23;99.84
66681;BME280;53575;51.366;12.350;2022-10-13T07:01:36;100739.66;;;11.38;100.00
66681;BME280;53575;51.366;12.350;2022-10-13T07:04:01;100724.00;;;11.23;100.00
66681;BME280;53575;51.366;12.350;2022-10-13T07:06:26;100741.44;;;11.22;100.00
66681;BME280;53575;51.366;12.350;2022-10-13T07:08:52;100732.72;;;11.30;100.00
66681;BME280;53575;51.366;12.350;2022-10-13T07:11:17;100725.75;;;11.24;100.00
66681;BME280;53575;51.366;12.350;2022-10-13T07:13:43;100729.19;;;11.38;100.00
66681;BME280;53575;51.366;12.350;2022-10-13T07:16:09;100730.03;;;11.43;100.00
66681;BME280;53575;51.366;12.350;2022-10-13T07:18:35;100723.94;;;11.46;100.00
66681;BME280;53575;51.366;12.350;2022-10-13T07:21:01;100718.63;;;11.63;100.00
66681;BME280;53575;51.366;12.350;2022-10-13T07:23:28;100721.19;;;11.75;99.85
66681;BME280;53575;51.366;12.350;2022-10-13T07:25:54;100718.56;;;11.78;99.62
66681;BME280;53575;51.366;12.350;2022-10-13T07:28:22;100721.16;;;11.90;98.46
66681;BME280;53575;51.366;12.350;2022-10-13T07:30:47;100730.75;;;11.96;97.98
66681;BME280;53575;51.366;12.350;2022-10-13T07:33:13;100715.81;;;12.09;97.10
66681;BME280;53575;51.366;12.350;2022-10-13T07:35:39;100722.00;;;11.99;98.13
66681;BME280;53575;51.366;12.350;2022-10-13T07:38:05;100721.13;;;12.03;97.88
66681;BME280;53575;51.366;12.350;2022-10-13T07:40:31;100721.97;;;12.06;97.96
66681;BME280;53575;51.366;12.350;2022-10-13T07:42:56;100723.69;;;12.07;97.86
66681;BME280;53575;51.366;12.350;2022-10-13T07:45:23;100721.03;;;12.15;97.52
66681;BME280;53575;51.366;12.350;2022-10-13T07:47:48;100712.31;;;12.14;97.60
66681;BME280;53575;51.366;12.350;2022-10-13T07:50:14;100721.88;;;12.20;97.26
66681;BME280;53575;51.366;12.350;2022-10-13T07:52:39;100713.94;;;12.34;96.43
66681;BME280;53575;51.366;12.350;2022-10-13T07:55:05;100713.91;;;12.32;95.79
66681;BME280;53575;51.366;12.350;2022-10-13T07:57:31;100716.47;;;12.40;96.07
66681;BME280;53575;51.366;12.350;2022-10-13T07:59:56;100717.25;;;12.54;95.52
66681;BME280;53575;51.366;12.350;2022-10-13T08:02:22;100725.94;;;12.62;94.42
66681;BME280;53575;51.366;12.350;2022-10-13T08:04:47;100715.38;;;12.72;94.59
66681;BME280;53575;51.366;12.350;2022-10-13T08:07:13;100719.59;;;12.88;93.81
66681;BME280;53575;51.366;12.350;2022-10-13T08:09:40;100718.72;;;12.90;93.13
66681;BME280;53575;51.366;12.350;2022-10-13T08:12:06;100716.84;;;13.00;93.04
66681;BME280;53575;51.366;12.350;2022-10-13T08:14:31;100715.03;;;13.08;92.44
66681;BME280;53575;51.366;12.350;2022-10-13T08:16:57;100709.75;;;13.11;91.87
66681;BME280;53575;51.366;12.350;2022-10-13T08:19:23;100708.78;;;13.23;91.27
66681;BME280;53575;51.366;12.350;2022-10-13T08:21:51;100709.56;;;13.31;90.84
66681;BME280;53575;51.366;12.350;2022-10-13T08:24:16;100697.28;;;13.36;90.22
66681;BME280;53575;51.366;12.350;2022-10-13T08:26:44;100687.72;;;13.28;91.20
66681;BME280;53575;51.366;12.350;2022-10-13T08:29:10;100687.56;;;13.45;90.88
66681;BME280;53575;51.366;12.350;2022-10-13T08:31:35;100688.28;;;13.59;90.85
66681;BME280;53575;51.366;12.350;2022-10-13T08:34:00;100690.81;;;13.63;90.26
66681;BME280;53575;51.366;12.350;2022-10-13T08:36:26;100689.66;;;13.84;88.83
66681;BME280;53575;51.366;12.350;2022-10-13T08:38:51;100678.94;;;14.01;87.74
66681;BME280;53575;51.366;12.350;2022-10-13T08:41:26;100674.31;;;14.15;86.92
66681;BME280;53575;51.366;12.350;2022-10-13T08:43:55;100678.59;;;14.24;87.31
66681;BME280;53575;51.366;12.350;2022-10-13T08:46:27;100673.97;;;14.40;86.13
66681;BME280;53575;51.366;12.350;2022-10-13T08:48:58;100672.06;;;14.48;86.00
66681;BME280;53575;51.366;12.350;2022-10-13T08:51:25;100666.59;;;14.63;85.18
66681;BME280;53575;51.366;12.350;2022-10-13T08:53:52;100667.28;;;14.75;84.01
66681;BME280;53575;51.366;12.350;2022-10-13T08:56:21;100660.25;;;14.75;83.84
66681;BME280;53575;51.366;12.350;2022-10-13T08:58:49;100654.88;;;14.81;83.81
66681;BME280;53575;51.366;12.350;2022-10-13T09:01:20;100654.69;;;14.91;84.13
66681;BME280;53575;51.366;12.350;2022-10-13T09:06:17;100654.91;;;15.25;82.26
66681;BME280;53575;51.366;12.350;2022-10-13T09:09:04;100654.66;;;15.37;81.65
66681;BME280;53575;51.366;12.350;2022-10-13T09:11:38;100663.41;;;15.39;81.10
66681;BME280;53575;51.366;12.350;2022-10-13T09:14:31;100661.53;;;15.44;81.46
66681;BME280;53575;51.366;12.350;2022-10-13T09:17:11;100655.25;;;15.51;80.12
66681;BME280;53575;51.366;12.350;2022-10-13T09:19:36;100657.91;;;15.51;80.47
66681;BME280;53575;51.366;12.350;2022-10-13T09:22:22;100652.34;;;15.64;79.88
66681;BME280;53575;51.366;12.350;2022-10-13T09:30:34;100654.13;;;15.63;79.78
66681;BME280;53575;51.366;12.350;2022-10-13T09:33:21;100653.22;;;15.64;79.51
66681;BME280;53575;51.366;12.350;2022-10-13T09:35:48;100650.00;;;15.51;79.96
66681;BME280;53575;51.366;12.350;2022-10-13T09:38:31;100646.28;;;15.60;80.27
66681;BME280;53575;51.366;12.350;2022-10-13T09:40:59;100647.88;;;15.70;80.40
66681;BME280;53575;51.366;12.350;2022-10-13T09:46:00;100652.31;;;16.07;78.96
66681;BME280;53575;51.366;12.350;2022-10-13T09:48:32;100647.72;;;16.15;77.98
66681;BME280;53575;51.366;12.350;2022-10-13T09:50:59;100644.59;;;16.35;76.85
66681;BME280;53575;51.366;12.350;2022-10-13T09:53:32;100646.84;;;16.50;76.03
66681;BME280;53575;51.366;12.350;2022-10-13T09:56:09;100648.38;;;16.61;76.40
66681;BME280;53575;51.366;12.350;2022-10-13T09:58:44;100648.25;;;16.65;75.59
66681;BME280;53575;51.366;12.350;2022-10-13T10:01:18;100637.63;;;16.68;76.35
66681;BME280;53575;51.366;12.350;2022-10-13T10:03:45;100643.97;;;16.60;76.29
66681;BME280;53575;51.366;12.350;2022-10-13T10:06:14;100639.41;;;16.66;76.07
66681;BME280;53575;51.366;12.350;2022-10-13T10:08:57;100636.75;;;16.68;76.29
66681;BME280;53575;51.366;12.350;2022-10-13T10:11:30;100633.97;;;16.74;75.98
66681;BME280;53575;51.366;12.350;2022-10-13T10:13:59;100636.59;;;16.75;75.26
66681;BME280;53575;51.366;12.350;2022-10-13T10:19:11;100622.63;;;16.69;74.92
66681;BME280;53575;51.366;12.350;2022-10-13T10:22:01;100625.50;;;16.60;74.45
66681;BME280;53575;51.366;12.350;2022-10-13T10:24:51;100624.84;;;16.51;75.26
66681;BME280;53575;51.366;12.350;2022-10-13T10:27:25;100615.78;;;16.62;74.99
66681;BME280;53575;51.366;12.350;2022-10-13T10:30:12;100620.81;;;16.71;74.90
66681;BME280;53575;51.366;12.350;2022-10-13T10:38:11;100613.47;;;16.84;73.86
66681;BME280;53575;51.366;12.350;2022-10-13T10:40:51;100607.38;;;16.81;74.00
66681;BME280;53575;51.366;12.350;2022-10-13T10:45:54;100606.88;;;17.00;73.38
66681;BME280;53575;51.366;12.350;2022-10-13T10:48:30;100604.00;;;17.08;73.12
66681;BME280;53575;51.366;12.350;2022-10-13T10:50:57;100604.72;;;17.13;72.76
66681;BME280;53575;51.366;12.350;2022-10-13T10:53:48;100592.44;;;17.12;72.21
66681;BME280;53575;51.366;12.350;2022-10-13T11:02:05;100589.00;;;17.10;71.28
66681;BME280;53575;51.366;12.350;2022-10-13T11:07:11;100579.88;;;17.20;71.22
66681;BME280;53575;51.366;12.350;2022-10-13T11:17:30;100578.66;;;17.32;69.18
66681;BME280;53575;51.366;12.350;2022-10-13T11:19:56;100570.16;;;17.22;69.67
66681;BME280;53575;51.366;12.350;2022-10-13T11:22:27;100567.88;;;17.10;70.22
66681;BME280;53575;51.366;12.350;2022-10-13T11:27:42;100568.75;;;17.10;69.83
66681;BME280;53575;51.366;12.350;2022-10-13T11:30:44;100565.69;;;17.24;70.51
66681;BME280;53575;51.366;12.350;2022-10-13T11:36:28;100563.03;;;17.53;69.29
66681;BME280;53575;51.366;12.350;2022-10-13T11:41:29;100555.25;;;17.49;68.17
66681;BME280;53575;51.366;12.350;2022-10-13T11:44:20;100553.47;;;17.49;68.44
66681;BME280;53575;51.366;12.350;2022-10-13T11:47:18;100546.91;;;17.91;67.33
66681;BME280;53575;51.366;12.350;2022-10-13T11:55:38;100561.47;;;17.46;67.93
66681;BME280;53575;51.366;12.350;2022-10-13T12:01:13;100552.75;;;17.44;67.88
66681;BME280;53575;51.366;12.350;2022-10-13T12:03:41;100549.38;;;17.39;68.24
66681;BME280;53575;51.366;12.350;2022-10-13T12:08:48;100546.63;;;17.13;66.41
66681;BME280;53575;51.366;12.350;2022-10-13T12:11:35;100541.09;;;17.22;66.29
66681;BME280;53575;51.366;12.350;2022-10-13T12:14:05;100528.81;;;17.21;66.66
66681;BME280;53575;51.366;12.350;2022-10-13T12:16:31;100527.66;;;17.29;66.45
66681;BME280;53575;51.366;12.350;2022-10-13T12:19:28;100527.19;;;17.45;65.07
66681;BME280;53575;51.366;12.350;2022-10-13T12:21:54;100520.81;;;17.52;63.51
66681;BME280;53575;51.366;12.350;2022-10-13T12:24:22;100520.97;;;17.75;63.49
66681;BME280;53575;51.366;12.350;2022-10-13T12:26:49;100512.19;;;18.01;62.58
66681;BME280;53575;51.366;12.350;2022-10-13T12:29:14;100497.88;;;18.07;62.56
66681;BME280;53575;51.366;12.350;2022-10-13T12:31:43;100501.59;;;18.01;61.95
66681;BME280;53575;51.366;12.350;2022-10-13T12:34:22;100496.59;;;18.19;61.41
66681;BME280;53575;51.366;12.350;2022-10-13T12:36:55;100501.34;;;18.09;60.72
66681;BME280;53575;51.366;12.350;2022-10-13T12:39:21;100494.31;;;18.08;60.43
66681;BME280;53575;51.366;12.350;2022-10-13T12:41:49;100498.81;;;18.06;61.16
66681;BME280;53575;51.366;12.350;2022-10-13T12:44:24;100489.66;;;18.16;61.42
66681;BME280;53575;51.366;12.350;2022-10-13T12:46:52;100487.59;;;18.24;60.12
66681;BME280;53575;51.366;12.350;2022-10-13T12:49:21;100482.31;;;18.24;59.95
66681;BME280;53575;51.366;12.350;2022-10-13T12:51:50;100476.56;;;18.37;60.23
66681;BME280;53575;51.366;12.350;2022-10-13T12:54:28;100481.53;;;18.46;59.93
66681;BME280;53575;51.366;12.350;2022-10-13T12:57:00;100473.00;;;18.63;58.73
66681;BME280;53575;51.366;12.350;2022-10-13T12:59:28;100471.84;;;18.70;58.79
66681;BME280;53575;51.366;12.350;2022-10-13T13:02:00;100470.16;;;18.67;58.14
66681;BME280;53575;51.366;12.350;2022-10-13T13:07:03;100471.03;;;19.15;56.54
66681;BME280;53575;51.366;12.350;2022-10-13T13:09:33;100468.94;;;19.23;56.31
66681;BME280;53575;51.366;12.350;2022-10-13T13:12:14;100471.16;;;19.12;57.09
66681;BME280;53575;51.366;12.350;2022-10-13T13:14:44;100466.06;;;19.29;56.49
66681;BME280;53575;51.366;12.350;2022-10-13T13:19:40;100465.00;;;19.55;55.94
66681;BME280;53575;51.366;12.350;2022-10-13T13:22:06;100473.09;;;19.52;54.65
66681;BME280;53575;51.366;12.350;2022-10-13T13:24:32;100464.69;;;19.41;54.59
66681;BME280;53575;51.366;12.350;2022-10-13T13:26:58;100463.91;;;19.39;55.44
66681;BME280;53575;51.366;12.350;2022-10-13T13:29:24;100467.47;;;19.38;55.80
66681;BME280;53575;51.366;12.350;2022-10-13T13:31:49;100462.53;;;19.29;55.69
66681;BME280;53575;51.366;12.350;2022-10-13T13:34:15;100466.53;;;19.17;56.90
66681;BME280;53575;51.366;12.350;2022-10-13T13:36:40;100462.31;;;18.89;56.38
66681;BME280;53575;51.366;12.350;2022-10-13T13:39:13;100460.06;;;18.54;58.03
66681;BME280;53575;51.366;12.350;2022-10-13T13:41:40;100454.59;;;18.58;58.75
66681;BME280;53575;51.366;12.350;2022-10-13T13:44:05;100454.81;;;19.01;57.62
66681;BME280;53575;51.366;12.350;2022-10-13T13:46:30;100450.22;;;19.28;55.94
66681;BME280;53575;51.366;12.350;2022-10-13T13:48:57;100446.53;;;19.32;55.18
66681;BME280;53575;51.366;12.350;2022-10-13T13:51:22;100443.91;;;19.30;55.89
66681;BME280;53575;51.366;12.350;2022-10-13T13:53:47;100450.84;;;19.12;56.17
66681;BME280;53575;51.366;12.350;2022-10-13T13:56:14;100452.97;;;19.03;55.62
66681;BME280;53575;51.366;12.350;2022-10-13T13:58:40;100450.72;;;18.92;56.23
66681;BME280;53575;51.366;12.350;2022-10-13T14:01:06;100443.34;;;18.53;56.24
66681;BME280;53575;51.366;12.350;2022-10-13T14:03:31;100448.22;;;18.40;56.28
66681;BME280;53575;51.366;12.350;2022-10-13T14:05:56;100447.28;;;18.41;56.39
66681;BME280;53575;51.366;12.350;2022-10-13T14:08:22;100436.34;;;18.75;54.96
66681;BME280;53575;51.366;12.350;2022-10-13T14:10:47;100441.91;;;18.91;55.55